Time;durP1;ratioP1;P1;durP2;ratioP2;P2;SDS_P1;SDS_P2;PMS_P1;PMS_P2;Temp;Humidity;BMP_temperature;BMP_pressure;BME280_temperature;BME280_humidity;BME280_pressure;Samples;Min_cycle;Max_cycle;Signal;HPM_P1;HPM_P2
2022/07/10 00:00:01;;;;;;;3.43;0.90;;;;;;;15.49;60.75;101227.16;5122671;28;20837;-64
2022/07/10 00:02:28;;;;;;;3.37;1.37;;;;;;;15.36;60.65;101235.56;5122050;28;20513;-64
2022/07/10 00:04:54;;;;;;;2.80;1.07;;;;;;;15.51;60.46;101238.63;5122411;27;20446;-64
2022/07/10 00:07:22;;;;;;;1.43;1.00;;;;;;;15.42;60.70;101226.06;5122181;28;21017;-64
2022/07/10 00:09:49;;;;;;;3.60;1.30;;;;;;;15.37;60.86;101233.72;5122727;28;20481;-64
2022/07/10 00:12:16;;;;;;;5.23;0.97;;;;;;;15.40;60.91;101220.81;5122176;28;20494;-64
2022/07/10 00:14:42;;;;;;;2.33;0.93;;;;;;;15.41;60.78;101224.34;5123156;27;20480;-64
2022/07/10 00:17:09;;;;;;;3.73;1.33;;;;;;;15.41;61.02;101219.78;5121396;28;20541;-64
2022/07/10 00:19:36;;;;;;;2.70;1.10;;;;;;;15.40;61.12;101211.88;5121474;28;20494;-64
2022/07/10 00:22:03;;;;;;;2.50;0.90;;;;;;;15.45;61.13;101217.66;5121469;28;20500;-64
2022/07/10 00:24:31;;;;;;;5.30;2.80;;;;;;;15.34;61.89;101218.69;5122704;27;20460;-63
2022/07/10 00:26:58;;;;;;;4.87;1.13;;;;;;;15.44;61.71;101214.09;5121387;28;20481;-64
2022/07/10 00:29:25;;;;;;;4.77;1.20;;;;;;;15.38;61.66;101213.84;5122257;28;20482;-64
2022/07/10 00:31:51;;;;;;;2.50;1.10;;;;;;;15.47;61.14;101212.97;5121935;28;20470;-64
2022/07/10 00:34:18;;;;;;;9.00;1.47;;;;;;;15.50;61.08;101217.19;5122794;27;20818;-64
2022/07/10 00:36:45;;;;;;;4.10;1.20;;;;;;;15.13;62.07;101215.38;5121428;28;20545;-64
2022/07/10 00:39:11;;;;;;;6.57;1.10;;;;;;;15.36;61.92;101219.41;5122073;28;20462;-64
2022/07/10 00:41:39;;;;;;;3.10;1.30;;;;;;;15.35;62.15;101220.41;5121611;28;20474;-64
2022/07/10 00:44:06;;;;;;;4.67;1.30;;;;;;;15.40;61.98;101211.88;5122555;27;20438;-64
2022/07/10 00:46:33;;;;;;;7.40;1.93;;;;;;;15.44;61.77;101213.28;5120828;28;21042;-64
2022/07/10 00:49:00;;;;;;;4.23;1.03;;;;;;;15.42;62.02;101220.66;5121802;28;20449;-64
2022/07/10 00:51:28;;;;;;;7.20;1.20;;;;;;;15.28;62.54;101213.91;5120670;28;20511;-64
2022/07/10 00:53:55;;;;;;;4.80;1.37;;;;;;;15.26;62.57;101215.91;5124422;27;20442;-63
2022/07/10 00:56:23;;;;;;;3.63;1.23;;;;;;;15.19;62.65;101212.94;5141849;27;20480;-63
2022/07/10 00:58:52;;;;;;;3.80;1.03;;;;;;;15.05;62.90;101221.47;5142535;27;20453;-64
2022/07/10 01:01:19;;;;;;;2.23;1.30;;;;;;;15.19;62.55;101229.09;5141578;27;20496;-64
2022/07/10 01:03:46;;;;;;;5.40;1.20;;;;;;;15.23;62.85;101219.72;5137898;27;20462;-65
2022/07/10 01:06:13;;;;;;;3.83;1.10;;;;;;;15.22;62.49;101206.41;5120071;28;20512;-64
2022/07/10 01:08:40;;;;;;;7.50;1.53;;;;;;;15.06;63.32;101210.56;5121578;28;20473;-65
2022/07/10 01:11:06;;;;;;;10.00;1.83;;;;;;;14.94;63.48;101206.34;5120389;28;20466;-64
2022/07/10 01:13:33;;;;;;;7.40;1.63;;;;;;;15.10;63.06;101204.88;5121551;27;20446;-63
2022/07/10 01:16:01;;;;;;;7.23;1.70;;;;;;;15.20;62.58;101200.31;5120109;28;20481;-64
2022/07/10 01:18:28;;;;;;;1.37;0.70;;;;;;;15.18;62.79;101194.22;5121109;28;20468;-64
2022/07/10 01:20:57;;;;;;;4.93;1.20;;;;;;;15.23;62.70;101205.41;5120434;28;20553;-64
2022/07/10 01:23:24;;;;;;;3.90;1.20;;;;;;;15.02;63.40;101202.94;5121647;27;20474;-64
2022/07/10 01:25:51;;;;;;;8.37;2.40;;;;;;;14.92;63.96;101194.03;5120609;28;20478;-64
2022/07/10 01:28:18;;;;;;;3.00;1.20;;;;;;;14.93;64.18;101199.28;5120907;28;20545;-65
2022/07/10 01:30:45;;;;;;;4.23;1.20;;;;;;;14.95;64.21;101196.44;5120550;28;20491;-65
2022/07/10 01:33:11;;;;;;;5.77;1.70;;;;;;;15.05;63.97;101200.81;5121038;28;20453;-65
2022/07/10 01:35:38;;;;;;;9.93;1.33;;;;;;;14.86;64.42;101190.94;5120491;27;20492;-64
2022/07/10 01:38:09;;;;;;;6.03;1.10;;;;;;;14.93;64.52;101196.59;5120270;28;20470;-65
2022/07/10 01:40:36;;;;;;;3.07;1.30;;;;;;;14.83;64.46;101196.59;5120265;28;20679;-66
2022/07/10 01:43:02;;;;;;;10.13;1.43;;;;;;;14.96;64.04;101195.44;5120646;28;20513;-64
2022/07/10 01:45:29;;;;;;;4.43;1.40;;;;;;;15.05;63.90;101198.09;5124880;27;20869;-65
2022/07/10 01:47:56;;;;;;;4.10;1.30;;;;;;;14.90;64.26;101193.34;5134047;27;21138;-64
2022/07/10 01:50:23;;;;;;;3.20;1.27;;;;;;;14.92;64.58;101181.41;5119950;28;20490;-64
2022/07/10 01:52:50;;;;;;;5.33;1.57;;;;;;;15.00;64.35;101176.16;5120446;28;20462;-65
2022/07/10 01:55:18;;;;;;;4.77;1.57;;;;;;;14.98;64.12;101175.47;5120507;27;20477;-65
2022/07/10 01:57:45;;;;;;;3.43;1.20;;;;;;;14.92;64.62;101162.56;5120802;28;20442;-65
2022/07/10 02:00:12;;;;;;;6.33;1.40;;;;;;;14.85;64.76;101167.69;5119657;28;20482;-65
2022/07/10 02:02:39;;;;;;;5.20;1.30;;;;;;;14.84;64.62;101168.69;5120219;28;20477;-64
2022/07/10 02:05:05;;;;;;;3.30;1.00;;;;;;;15.03;64.41;101165.09;5120129;28;20951;-64
2022/07/10 02:07:32;;;;;;;10.17;2.17;;;;;;;14.86;64.59;101163.16;5119643;28;20450;-64
2022/07/10 02:09:59;;;;;;;2.60;1.00;;;;;;;14.93;64.81;101163.41;5120954;28;20476;-63
2022/07/10 02:12:27;;;;;;;5.83;1.50;;;;;;;14.74;65.01;101170.56;5120289;28;20470;-63
2022/07/10 02:14:56;;;;;;;3.40;1.53;;;;;;;14.71;65.21;101157.38;5131644;28;20530;-64
2022/07/10 02:17:23;;;;;;;2.57;1.40;;;;;;;14.81;65.02;101152.81;5140246;28;20506;-64
2022/07/10 02:19:49;;;;;;;9.90;1.50;;;;;;;14.60;65.40;101147.63;5140614;28;20455;-63
2022/07/10 02:22:16;;;;;;;13.93;1.43;;;;;;;14.67;65.86;101148.75;5140114;28;20500;-64
2022/07/10 02:24:43;;;;;;;4.90;1.30;;;;;;;14.84;65.09;101149.84;5132699;28;20437;-65
2022/07/10 02:27:09;;;;;;;4.77;0.97;;;;;;;14.52;66.00;101142.09;5140829;28;20477;-64
2022/07/10 02:29:38;;;;;;;4.80;1.53;;;;;;;14.52;66.05;101144.78;5141175;28;20474;-64
2022/07/10 02:32:05;;;;;;;6.87;1.60;;;;;;;14.52;65.97;101143.94;5135313;28;20560;-64
2022/07/10 02:34:32;;;;;;;4.73;1.63;;;;;;;14.54;66.25;101147.34;5128479;28;20461;-63
2022/07/10 02:36:59;;;;;;;5.00;1.60;;;;;;;14.67;65.64;101140.69;5140000;28;20473;-64
2022/07/10 02:39:25;;;;;;;3.67;1.30;;;;;;;14.65;65.28;101141.81;5120411;28;20518;-63
2022/07/10 02:41:52;;;;;;;6.33;1.40;;;;;;;14.72;65.59;101134.00;5137629;28;20472;-63
2022/07/10 02:44:19;;;;;;;6.57;1.50;;;;;;;14.71;65.74;101137.69;5140769;28;20429;-63
2022/07/10 02:46:47;;;;;;;6.83;1.80;;;;;;;14.74;65.88;101132.00;5139957;28;20473;-63
2022/07/10 02:49:13;;;;;;;3.90;1.10;;;;;;;14.74;65.54;101118.53;5141268;28;20442;-63
2022/07/10 02:51:40;;;;;;;3.90;1.10;;;;;;;14.67;65.85;101127.22;5122301;28;20498;-63
2022/07/10 02:54:07;;;;;;;2.97;1.20;;;;;;;14.64;65.93;101127.50;5120338;28;20422;-63
2022/07/10 02:56:35;;;;;;;3.90;1.00;;;;;;;14.59;66.02;101121.72;5119830;28;20545;-63
2022/07/10 02:59:02;;;;;;;7.07;1.63;;;;;;;14.53;66.63;101129.47;5119841;28;20506;-63
2022/07/10 03:01:29;;;;;;;7.17;1.40;;;;;;;14.72;66.11;101129.50;5133936;28;20476;-64
2022/07/10 03:03:57;;;;;;;4.23;1.70;;;;;;;14.81;65.82;101133.16;5141018;28;20421;-63
2022/07/10 03:06:24;;;;;;;5.50;1.73;;;;;;;14.66;66.40;101132.75;5137657;28;20473;-63
2022/07/10 03:08:50;;;;;;;3.33;1.10;;;;;;;14.50;67.11;101133.31;5119825;28;21018;-63
2022/07/10 03:11:17;;;;;;;8.40;1.50;;;;;;;14.53;67.30;101133.03;5119295;28;20478;-64
2022/07/10 03:13:44;;;;;;;2.90;1.10;;;;;;;14.48;67.00;101130.78;5120508;28;20446;-63
2022/07/10 03:16:11;;;;;;;5.37;1.23;;;;;;;14.47;67.62;101121.00;5118685;28;20465;-64
2022/07/10 03:18:37;;;;;;;5.00;1.93;;;;;;;14.49;67.51;101124.41;5121052;28;20442;-64
2022/07/10 03:21:06;;;;;;;6.13;1.53;;;;;;;14.49;67.58;101128.91;5122362;28;20535;-64
2022/07/10 03:23:32;;;;;;;5.10;1.50;;;;;;;14.62;67.24;101129.50;5123555;28;20454;-63
2022/07/10 03:25:59;;;;;;;3.53;1.20;;;;;;;14.59;67.13;101123.56;5123030;28;20474;-64
2022/07/10 03:28:26;;;;;;;5.57;1.60;;;;;;;14.45;67.75;101136.44;5122924;28;20898;-64
2022/07/10 03:30:52;;;;;;;10.07;1.47;;;;;;;14.53;67.55;101133.03;5131110;27;21013;-63
2022/07/10 03:33:19;;;;;;;4.97;1.53;;;;;;;14.56;67.69;101130.03;5143383;27;20468;-63
2022/07/10 03:35:45;;;;;;;4.67;1.43;;;;;;;14.57;67.51;101133.59;5142709;27;21049;-64
2022/07/10 03:38:13;;;;;;;2.93;1.20;;;;;;;14.42;68.03;101134.03;5143195;27;20476;-63
2022/07/10 03:40:40;;;;;;;7.80;1.77;;;;;;;14.50;68.11;101128.78;5137691;27;20500;-63
2022/07/10 03:43:07;;;;;;;6.97;1.73;;;;;;;14.62;67.47;101136.72;5143744;27;20470;-64
2022/07/10 03:45:34;;;;;;;5.23;1.97;;;;;;;14.50;67.77;101136.84;5143269;27;20465;-63
2022/07/10 03:48:00;;;;;;;8.07;1.60;;;;;;;14.60;67.82;101142.25;5143366;27;20449;-64
2022/07/10 03:50:27;;;;;;;5.70;1.40;;;;;;;14.74;67.67;101134.69;5141618;27;20473;-64
2022/07/10 03:52:54;;;;;;;6.37;1.40;;;;;;;14.56;67.55;101134.56;5143858;27;20477;-63
2022/07/10 03:55:22;;;;;;;5.47;1.10;;;;;;;14.59;67.62;101140.56;5143330;27;20516;-65
2022/07/10 03:57:53;;;;;;;5.93;1.87;;;;;;;14.43;68.32;101143.81;5136695;27;20448;-65
2022/07/10 04:00:22;;;;;;;8.40;1.17;;;;;;;14.24;69.03;101139.28;5122126;28;20570;-65
2022/07/10 04:02:49;;;;;;;2.17;1.20;;;;;;;14.47;68.72;101145.22;5122893;28;20470;-65
2022/07/10 04:05:15;;;;;;;3.87;1.47;;;;;;;14.49;68.18;101137.88;5121749;28;20514;-64
2022/07/10 04:07:42;;;;;;;5.70;1.83;;;;;;;14.32;68.75;101134.06;5123359;28;20446;-65
2022/07/10 04:10:10;;;;;;;10.63;1.50;;;;;;;14.41;68.41;101126.09;5122623;28;20434;-64
2022/07/10 04:12:38;;;;;;;4.83;1.33;;;;;;;14.40;68.53;101133.31;5122616;28;20468;-64
2022/07/10 04:15:06;;;;;;;2.77;1.60;;;;;;;14.44;68.44;101133.88;5122812;28;21188;-63
2022/07/10 04:17:33;;;;;;;9.97;1.77;;;;;;;14.49;68.10;101137.88;5121684;27;20474;-63
2022/07/10 04:20:00;;;;;;;6.20;1.70;;;;;;;14.66;67.54;101143.50;5121745;28;20525;-63
2022/07/10 04:22:27;;;;;;;5.00;1.30;;;;;;;14.66;67.42;101138.13;5121187;28;20584;-63
2022/07/10 04:24:54;;;;;;;6.87;1.87;;;;;;;14.62;67.19;101145.66;5135892;27;20452;-64
2022/07/10 04:27:20;;;;;;;7.60;1.63;;;;;;;14.63;67.18;101133.91;5134712;27;20866;-63
2022/07/10 04:29:49;;;;;;;5.30;1.30;;;;;;;14.52;67.54;101136.72;5121197;28;20450;-63
2022/07/10 04:32:16;;;;;;;7.37;1.40;;;;;;;14.76;67.22;101138.97;5121081;27;20466;-63
2022/07/10 04:34:43;;;;;;;6.50;1.50;;;;;;;14.90;66.49;101131.41;5122798;27;20514;-64
2022/07/10 04:37:10;;;;;;;5.53;1.40;;;;;;;14.77;66.83;101137.09;5121779;27;20486;-63
2022/07/10 04:39:37;;;;;;;10.50;1.70;;;;;;;14.61;67.00;101130.47;5121639;28;20442;-63
2022/07/10 04:42:04;;;;;;;8.20;1.60;;;;;;;14.90;66.59;101131.41;5126791;27;20497;-63
2022/07/10 04:44:31;;;;;;;6.23;1.20;;;;;;;14.92;66.30;101135.63;5141800;27;20442;-63
2022/07/10 04:46:59;;;;;;;7.13;1.80;;;;;;;14.52;67.61;101139.41;5141391;27;20508;-64
2022/07/10 04:49:26;;;;;;;5.07;1.13;;;;;;;14.76;66.97;101133.56;5142629;27;20457;-63
2022/07/10 04:51:53;;;;;;;5.70;1.83;;;;;;;14.79;66.33;101127.91;5141236;27;20505;-63
2022/07/10 04:54:20;;;;;;;5.23;1.60;;;;;;;14.72;66.86;101137.56;5137058;27;20430;-63
2022/07/10 04:56:47;;;;;;;5.37;0.90;;;;;;;14.93;66.27;101142.72;5120984;28;20470;-63
2022/07/10 04:59:13;;;;;;;5.47;1.30;;;;;;;14.85;66.56;101150.69;5122674;27;20449;-63
2022/07/10 05:01:40;;;;;;;6.17;1.30;;;;;;;15.01;66.21;101145.50;5120894;28;20856;-63
2022/07/10 05:04:09;;;;;;;8.43;1.33;;;;;;;14.75;66.86;101145.31;5121553;27;20506;-63
2022/07/10 05:06:36;;;;;;;7.70;1.40;;;;;;;14.81;67.01;101147.44;5120757;28;20480;-63
2022/07/10 05:09:03;;;;;;;13.37;1.53;;;;;;;14.67;67.68;101142.53;5121424;28;20475;-63
2022/07/10 05:11:31;;;;;;;3.80;1.30;;;;;;;14.67;67.68;101138.00;5120757;28;20470;-63
2022/07/10 05:13:58;;;;;;;7.80;1.50;;;;;;;14.66;68.16;101138.97;5122080;27;20844;-64
2022/07/10 05:16:24;;;;;;;9.23;1.70;;;;;;;14.76;67.47;101147.03;5120551;28;21045;-63
2022/07/10 05:18:51;;;;;;;3.00;1.10;;;;;;;14.73;67.91;101135.72;5121478;28;20452;-65
2022/07/10 05:21:19;;;;;;;11.67;1.90;;;;;;;14.90;67.36;101142.19;5120474;28;20466;-63
2022/07/10 05:23:46;;;;;;;6.53;1.37;;;;;;;14.40;68.79;101146.78;5121986;28;20491;-65
2022/07/10 05:26:13;;;;;;;6.83;2.20;;;;;;;14.66;68.52;101141.66;5121149;27;20482;-65
2022/07/10 05:28:39;;;;;;;3.30;1.43;;;;;;;14.78;68.36;101152.28;5121186;28;20461;-64
2022/07/10 05:31:06;;;;;;;4.77;1.57;;;;;;;14.94;67.92;101154.34;5120492;28;20542;-64
2022/07/10 05:33:33;;;;;;;3.87;1.30;;;;;;;15.04;67.74;101147.91;5121420;28;20489;-63
2022/07/10 05:36:00;;;;;;;8.27;1.57;;;;;;;15.06;67.87;101151.31;5120201;28;20473;-63
2022/07/10 05:38:28;;;;;;;5.50;1.80;;;;;;;14.85;68.59;101146.16;5120847;28;20970;-64
2022/07/10 05:40:55;;;;;;;11.00;2.47;;;;;;;14.99;68.03;101138.59;5119529;28;21022;-64
2022/07/10 05:43:21;;;;;;;4.60;1.63;;;;;;;15.07;67.98;101153.03;5121602;28;20442;-63
2022/07/10 05:45:48;;;;;;;6.23;1.77;;;;;;;15.15;67.69;101157.66;5119588;27;20890;-63
2022/07/10 05:48:15;;;;;;;5.73;1.60;;;;;;;15.05;67.74;101149.63;5121283;28;20450;-64
2022/07/10 05:50:41;;;;;;;7.73;1.33;;;;;;;15.19;67.90;101145.59;5120094;28;20473;-64
2022/07/10 05:53:08;;;;;;;9.13;2.03;;;;;;;15.29;67.49;101147.41;5121272;28;20446;-64
2022/07/10 05:55:36;;;;;;;3.97;1.10;;;;;;;15.29;67.21;101148.22;5125047;27;20490;-64
2022/07/10 05:58:03;;;;;;;4.07;1.93;;;;;;;15.37;66.51;101148.34;5124425;27;20449;-64
2022/07/10 06:00:30;;;;;;;7.20;1.77;;;;;;;15.69;65.60;101149.69;5120201;28;20491;-64
2022/07/10 06:02:56;;;;;;;12.80;2.20;;;;;;;15.22;67.29;101152.53;5120175;27;20449;-64
2022/07/10 06:05:23;;;;;;;4.67;1.40;;;;;;;15.38;66.79;101152.75;5119937;28;20450;-64
2022/07/10 06:07:50;;;;;;;5.37;1.40;;;;;;;15.60;66.29;101154.16;5121111;28;20453;-64
2022/07/10 06:10:16;;;;;;;4.60;1.83;;;;;;;15.43;66.18;101166.63;5120660;28;20426;-64
2022/07/10 06:12:45;;;;;;;10.93;2.00;;;;;;;15.47;66.71;101167.16;5123120;28;20548;-63
2022/07/10 06:15:12;;;;;;;4.37;1.30;;;;;;;15.58;66.24;101161.56;5119732;28;20438;-64
2022/07/10 06:17:39;;;;;;;6.50;1.90;;;;;;;15.67;65.64;101170.56;5120339;28;20430;-66
2022/07/10 06:20:06;;;;;;;4.90;1.50;;;;;;;15.62;66.04;101170.19;5119388;28;20486;-68
2022/07/10 06:22:33;;;;;;;3.03;1.10;;;;;;;16.04;64.94;101158.88;5119973;28;20489;-68
2022/07/10 06:25:00;;;;;;;4.80;1.27;;;;;;;16.09;64.58;101156.56;5138814;28;20485;-70
2022/07/10 06:27:27;;;;;;;4.90;1.77;;;;;;;16.10;64.54;101165.50;5140712;28;20473;-67
2022/07/10 06:29:56;;;;;;;4.87;1.43;;;;;;;16.00;64.39;101152.06;5119419;28;20473;-74
2022/07/10 06:32:24;;;;;;;9.90;1.57;;;;;;;15.89;64.04;101152.31;5116189;28;20470;-68
2022/07/10 06:34:50;;;;;;;9.07;1.43;;;;;;;16.14;63.86;101161.47;5119644;28;20533;-72
2022/07/10 06:37:17;;;;;;;6.10;1.80;;;;;;;16.22;63.11;101155.31;5118690;28;20481;-73
2022/07/10 06:39:44;;;;;;;6.73;1.40;;;;;;;16.61;61.67;101155.78;5119202;28;20474;-68
2022/07/10 06:42:10;;;;;;;6.07;1.43;;;;;;;16.70;61.25;101152.16;5119545;28;20543;-67
2022/07/10 06:44:37;;;;;;;6.20;1.50;;;;;;;16.59;60.53;101155.09;5118583;28;20446;-67
2022/07/10 06:49:52;;;;;;;6.60;1.77;;;;;;;17.60;58.37;101159.88;5116855;28;20445;-67
2022/07/10 06:52:19;;;;;;;5.80;1.33;;;;;;;17.63;57.51;101154.13;5118918;28;20974;-68
2022/07/10 06:54:46;;;;;;;5.17;1.27;;;;;;;17.54;57.90;101143.47;5122850;28;20461;-68
2022/07/10 06:57:12;;;;;;;7.47;2.23;;;;;;;17.88;57.05;101149.66;5130395;27;20477;-67
2022/07/10 06:59:39;;;;;;;7.93;1.70;;;;;;;17.76;56.97;101156.38;5124360;28;20477;-67
2022/07/10 07:02:07;;;;;;;7.93;1.57;;;;;;;17.76;57.15;101153.66;5122319;28;20874;-68
2022/07/10 07:04:34;;;;;;;9.80;2.13;;;;;;;17.56;57.60;101157.66;5123202;28;20472;-67
2022/07/10 07:07:02;;;;;;;4.47;1.00;;;;;;;17.73;57.23;101139.63;5122661;28;20481;-68
2022/07/10 07:09:29;;;;;;;5.37;1.50;;;;;;;17.56;57.51;101149.56;5123537;28;20460;-67
2022/07/10 07:11:56;;;;;;;11.60;2.10;;;;;;;17.52;57.57;101156.31;5122518;27;20477;-68
2022/07/10 07:14:23;;;;;;;6.23;1.60;;;;;;;17.95;56.51;101144.44;5125567;27;20486;-67
2022/07/10 07:16:58;;;;;;;14.87;2.70;;;;;;;17.80;56.57;101156.88;5122688;28;20473;-68
2022/07/10 07:19:31;;;;;;;6.20;2.20;;;;;;;17.54;57.43;101165.09;5123571;28;20449;-67
2022/07/10 07:24:43;;;;;;;6.47;1.80;;;;;;;17.49;58.10;101154.75;5119855;28;20495;-68
2022/07/10 07:27:10;;;;;;;6.50;1.23;;;;;;;17.50;57.43;101146.50;5121708;28;20498;-68
2022/07/10 07:29:37;;;;;;;8.57;1.57;;;;;;;17.67;57.38;101151.94;5122697;28;20969;-69
2022/07/10 07:32:05;;;;;;;4.20;1.40;;;;;;;17.61;57.33;101149.91;5121426;27;20526;-68
2022/07/10 07:34:33;;;;;;;5.80;1.30;;;;;;;18.39;55.99;101157.63;5119835;28;20458;-67
2022/07/10 07:37:00;;;;;;;5.20;1.50;;;;;;;18.59;54.42;101144.59;5121460;28;20474;-68
2022/07/10 07:39:26;;;;;;;9.07;2.00;;;;;;;17.43;57.57;101150.00;5122829;28;20446;-67
2022/07/10 07:41:53;;;;;;;5.87;1.73;;;;;;;17.58;57.41;101155.63;5121730;27;20497;-68
2022/07/10 07:44:20;;;;;;;3.33;1.30;;;;;;;18.07;56.19;101155.75;5122413;28;20490;-68
2022/07/10 07:46:47;;;;;;;5.70;1.33;;;;;;;18.08;56.66;101153.91;5121409;28;20470;-68
2022/07/10 07:49:13;;;;;;;8.43;1.20;;;;;;;17.69;56.59;101158.06;5122312;28;20442;-68
2022/07/10 07:51:41;;;;;;;7.30;1.37;;;;;;;17.96;55.99;101156.94;5119255;27;20485;-67
2022/07/10 07:54:08;;;;;;;13.37;1.80;;;;;;;17.84;56.34;101155.53;5123172;28;20434;-66
2022/07/10 07:56:35;;;;;;;7.30;1.83;;;;;;;18.26;55.31;101149.16;5121971;28;20493;-69
2022/07/10 07:59:01;;;;;;;7.67;2.30;;;;;;;18.96;53.65;101154.03;5122607;28;20450;-68
2022/07/10 08:01:28;;;;;;;9.70;1.83;;;;;;;18.96;52.00;101161.34;5121686;27;20879;-67
2022/07/10 08:03:55;;;;;;;6.33;1.10;;;;;;;18.80;53.24;101160.31;5124977;27;20515;-68
2022/07/10 08:06:22;;;;;;;9.40;1.40;;;;;;;20.30;49.44;101148.59;5121529;28;20509;-68
2022/07/10 08:08:50;;;;;;;7.53;1.50;;;;;;;22.60;43.87;101151.09;5122559;28;20779;-67
2022/07/10 08:11:17;;;;;;;4.60;1.40;;;;;;;24.75;38.16;101151.63;5121533;27;20496;-69
2022/07/10 08:13:44;;;;;;;6.00;1.47;;;;;;;24.97;37.07;101144.03;5122099;28;20461;-69
2022/07/10 08:16:11;;;;;;;5.57;1.20;;;;;;;22.27;41.11;101139.88;5121390;28;21065;-68
2022/07/10 08:18:37;;;;;;;5.43;1.83;;;;;;;23.12;40.27;101144.34;5121974;28;20524;-67
2022/07/10 08:21:04;;;;;;;10.03;1.40;;;;;;;25.51;35.66;101139.22;5119792;28;20474;-70
2022/07/10 08:23:31;;;;;;;3.47;0.93;;;;;;;25.08;35.74;101134.31;5122486;28;20446;-69
2022/07/10 08:25:59;;;;;;;5.53;1.37;;;;;;;25.14;35.87;101138.94;5121186;28;20470;-69
2022/07/10 08:28:31;;;;;;;6.67;1.60;;;;;;;24.05;37.95;101132.06;5120520;27;20450;-70
2022/07/10 08:30:59;;;;;;;3.87;1.00;;;;;;;23.99;37.68;101136.47;5118052;28;20477;-68
2022/07/10 08:33:28;;;;;;;4.00;1.00;;;;;;;24.13;37.32;101129.16;5121423;28;20515;-71
2022/07/10 08:35:58;;;;;;;6.20;1.60;;;;;;;23.49;38.10;101124.97;5119844;28;20493;-68
2022/07/10 08:38:27;;;;;;;3.23;1.20;;;;;;;22.13;40.20;101115.28;5119991;27;20462;-66
2022/07/10 08:40:56;;;;;;;3.00;0.97;;;;;;;22.51;39.43;101122.31;5104872;28;20531;-68
2022/07/10 08:43:25;;;;;;;7.17;1.20;;;;;;;22.19;40.46;101121.81;5121441;28;20461;-68
2022/07/10 08:45:53;;;;;;;2.50;0.73;;;;;;;23.21;38.55;101123.19;5119558;27;20541;-69
2022/07/10 08:48:24;;;;;;;6.10;1.60;;;;;;;25.27;35.01;101115.34;5121613;28;20487;-69
2022/07/10 08:50:53;;;;;;;4.90;1.37;;;;;;;24.13;37.20;101120.09;5119377;28;20995;-69
2022/07/10 08:53:25;;;;;;;2.77;1.07;;;;;;;22.97;37.57;101126.38;5120093;28;20564;-69
2022/07/10 08:55:51;;;;;;;4.40;1.33;;;;;;;21.80;39.66;101120.38;5120876;27;20508;-68
2022/07/10 08:58:19;;;;;;;5.80;1.20;;;;;;;21.08;41.24;101127.44;5120476;28;20481;-68
2022/07/10 09:00:47;;;;;;;4.70;1.60;;;;;;;20.32;43.77;101125.63;5119352;28;20462;-67
2022/07/10 09:03:14;;;;;;;5.10;1.17;;;;;;;19.72;44.82;101126.41;5120887;28;20505;-69
2022/07/10 09:05:40;;;;;;;3.93;1.00;;;;;;;20.00;44.47;101118.63;5119964;27;20500;-68
2022/07/10 09:08:22;;;;;;;5.37;1.33;;;;;;;20.61;43.25;101115.88;5119753;28;20431;-69
2022/07/10 09:10:55;;;;;;;3.70;0.80;;;;;;;21.06;42.24;101119.47;5119340;28;20511;-68
2022/07/10 09:13:24;;;;;;;4.03;1.13;;;;;;;21.63;40.74;101117.91;5109232;28;20492;-68
2022/07/10 09:15:53;;;;;;;3.77;1.03;;;;;;;21.71;40.15;101116.09;5118569;28;20482;-69
2022/07/10 09:18:25;;;;;;;5.03;1.40;;;;;;;21.48;40.18;101111.66;5120513;28;20445;-68
2022/07/10 09:20:52;;;;;;;2.33;1.00;;;;;;;21.59;40.35;101097.53;5117671;28;20474;-69
2022/07/10 09:23:20;;;;;;;3.60;1.00;;;;;;;23.28;37.95;101101.41;5120463;28;20442;-69
2022/07/10 09:25:48;;;;;;;9.03;0.93;;;;;;;23.15;36.98;101106.78;5120951;27;20492;-68
2022/07/10 09:28:18;;;;;;;3.67;1.10;;;;;;;21.86;38.94;101099.72;5119741;27;20530;-68
2022/07/10 09:30:45;;;;;;;3.07;1.10;;;;;;;21.63;39.98;101109.75;5119570;28;20553;-67
2022/07/10 09:33:25;;;;;;;3.20;1.10;;;;;;;20.80;41.89;101113.69;5116084;28;20499;-68
2022/07/10 09:36:10;;;;;;;4.00;1.00;;;;;;;20.55;43.56;101111.16;5109950;27;20485;-65
2022/07/10 09:39:00;;;;;;;3.00;0.80;;;;;;;19.84;45.45;101114.16;5117664;28;20495;-68
2022/07/10 09:41:29;;;;;;;8.40;1.20;;;;;;;19.77;46.32;101107.75;5116657;28;20497;-67
2022/07/10 09:43:56;;;;;;;7.40;1.60;;;;;;;19.99;46.54;101116.09;5118908;28;20462;-68
2022/07/10 09:46:25;;;;;;;6.67;2.33;;;;;;;19.60;46.39;101116.97;5119040;28;20508;-68
2022/07/10 09:49:07;;;;;;;8.90;1.60;;;;;;;19.34;47.67;101120.88;5118991;28;20435;-68
2022/07/10 09:51:36;;;;;;;4.80;2.30;;;;;;;19.65;47.28;101118.16;5117993;28;20469;-68
2022/07/10 09:54:04;;;;;;;8.47;2.27;;;;;;;19.63;46.59;101133.75;5119131;28;20640;-67
2022/07/10 09:56:43;;;;;;;3.63;1.97;;;;;;;19.91;46.60;101136.84;5120221;27;21150;-68
2022/07/10 09:59:11;;;;;;;2.67;1.07;;;;;;;19.68;46.77;101119.66;5117937;28;20446;-67
2022/07/10 10:01:38;;;;;;;6.17;1.20;;;;;;;19.72;47.47;101131.81;5119442;28;20496;-68
2022/07/10 10:04:07;;;;;;;4.90;1.20;;;;;;;20.22;46.67;101124.22;5118736;28;20474;-68
2022/07/10 10:06:34;;;;;;;4.80;1.73;;;;;;;20.44;46.77;101123.31;5123140;27;20481;-68
2022/07/10 10:09:06;;;;;;;2.70;1.83;;;;;;;20.46;45.99;101110.41;5117719;28;21017;-68
2022/07/10 10:11:35;;;;;;;8.40;2.03;;;;;;;20.45;46.28;101116.00;5118801;28;20480;-68
2022/07/10 10:14:03;;;;;;;7.67;1.57;;;;;;;20.69;46.15;101117.69;5118779;28;20521;-67
2022/07/10 10:16:30;;;;;;;3.90;1.00;;;;;;;20.50;46.08;101119.03;5118666;28;20478;-68
2022/07/10 10:21:43;;;;;;;6.77;1.60;;;;;;;20.80;46.54;101111.78;5119247;28;20469;-67
2022/07/10 10:24:10;;;;;;;2.83;1.20;;;;;;;20.56;46.39;101115.59;5119948;28;20480;-67
2022/07/10 10:26:37;;;;;;;5.13;1.27;;;;;;;20.60;46.66;101114.16;5123689;27;20473;-68
2022/07/10 10:29:04;;;;;;;8.60;1.27;;;;;;;20.88;45.35;101114.44;5142060;27;20452;-67
2022/07/10 10:31:32;;;;;;;6.60;1.87;;;;;;;19.68;48.53;101119.66;5126936;27;20465;-67
2022/07/10 10:34:00;;;;;;;4.70;1.00;;;;;;;19.60;49.07;101123.28;5123696;28;21067;-67
2022/07/10 10:36:49;;;;;;;4.07;1.00;;;;;;;19.93;48.86;101117.66;5121232;28;20570;-68
2022/07/10 10:39:18;;;;;;;4.83;1.27;;;;;;;19.68;49.23;101125.91;5099477;28;20633;-68
2022/07/10 10:41:49;;;;;;;5.03;1.20;;;;;;;19.66;50.37;101125.25;5120181;28;20567;-68
2022/07/10 10:44:24;;;;;;;5.60;1.83;;;;;;;19.50;52.83;101125.38;5123055;28;20476;-67
2022/07/10 10:46:59;;;;;;;5.30;2.17;;;;;;;19.70;52.72;101131.16;5122186;27;21027;-67
2022/07/10 10:49:26;;;;;;;8.63;1.80;;;;;;;19.83;52.75;101128.75;5122745;28;20441;-68
2022/07/10 10:52:01;;;;;;;5.13;1.37;;;;;;;19.72;52.81;101131.81;5121504;28;20474;-68
2022/07/10 10:54:28;;;;;;;2.80;1.20;;;;;;;19.64;51.71;101134.59;5123303;28;20469;-68
2022/07/10 10:57:22;;;;;;;2.77;1.20;;;;;;;19.60;52.26;101123.28;5129756;27;20480;-68
2022/07/10 10:59:50;;;;;;;3.10;1.30;;;;;;;19.45;53.26;101138.59;5075453;27;20664;-68
2022/07/10 11:02:26;;;;;;;3.97;1.20;;;;;;;19.26;53.95;101129.88;5121071;28;20503;-67
2022/07/10 11:04:52;;;;;;;7.83;1.20;;;;;;;19.53;54.68;101125.00;5122658;28;20441;-67
2022/07/10 11:07:53;;;;;;;4.30;1.10;;;;;;;19.33;54.51;101124.59;5122069;27;20499;-67
2022/07/10 11:10:30;;;;;;;4.70;1.30;;;;;;;18.72;56.21;101126.97;5121247;28;20508;-67
2022/07/10 11:13:00;;;;;;;3.03;1.00;;;;;;;19.07;56.81;101124.88;5121268;28;20908;-67
2022/07/10 11:15:29;;;;;;;6.30;1.13;;;;;;;19.55;55.27;101123.78;5121772;28;20495;-68
2022/07/10 11:17:56;;;;;;;6.63;1.47;;;;;;;19.71;54.76;101132.88;5122571;27;20427;-69
2022/07/10 11:20:23;;;;;;;3.60;1.23;;;;;;;19.28;56.03;101133.25;5120376;28;20442;-68
2022/07/10 11:23:01;;;;;;;4.60;1.00;;;;;;;18.87;58.40;101138.84;5119896;27;20446;-68
2022/07/10 11:25:44;;;;;;;1.90;0.67;;;;;;;17.56;65.27;101136.03;5117714;28;20473;-67
2022/07/10 11:28:13;;;;;;;3.70;1.10;;;;;;;17.75;66.72;101137.59;5136328;27;20437;-67
2022/07/10 11:30:47;;;;;;;5.77;1.00;;;;;;;18.24;65.76;101145.78;5134659;27;20473;-68
2022/07/10 11:33:15;;;;;;;3.87;1.47;;;;;;;18.41;66.14;101136.66;5120142;28;21037;-68
2022/07/10 11:35:45;;;;;;;1.60;0.77;;;;;;;18.27;65.81;101134.63;5118534;28;20466;-68